Just Believe — WDE6179 — position and weather

sailwx.info

Track history (hours):
 
Tides and Currents Weather Stations Pressure Air Temp Water Temp Dewpoint Dewpoint Depression Visibility Wind Speed Wind Dir Waves Ship Positions

Just Believe

More information available from US FCC via Universal Licensing System and Coast Guard Vessel Documentation Center.

Last reported at 2014-Jul-01 08:15 UTC. Time now 2014-Jul-29 10:43 UTC.
Position N 42°48' W 067°23'.
Warning: this ship's position is 28 days out of date.

Length 18 m; draft 2 m.

Type: Pleasure craft. MMSI: 367376980.

Date/timePositionNaut miles runAvg speedWind from/ knotsBaromVisibWave heightAir tempDewpointWater temp
2014-Jul-01 08:15N 42°48' W 067°23'5 7.3
2014-Jul-01 07:33N 42°46' W 067°30'8 7.6
2014-Jul-01 06:33N 42°44' W 067°40'7 7.4
2014-Jul-01 05:33N 42°42' W 067°49'8 7.8
2014-Jul-01 04:33N 42°39' W 067°59'8 8.4
2014-Jul-01 03:33N 42°37' W 068°10'8 8.0
2014-Jul-01 02:33N 42°34' W 068°20'9 8.7
2014-Jul-01 01:33N 42°31' W 068°32'9 8.5
2014-Jul-01 00:32N 42°29' W 068°43'86 7.6
2014-Jun-30 13:13N 41°50' W 070°27'5 7.9
2014-Jun-30 12:33N 41°47' W 070°32'9 9.1
2014-Jun-30 11:33N 41°41' W 070°42'1 0.6
2014-Jun-30 10:25N 41°42' W 070°43'0 0.0
2014-Jun-30 09:31N 41°42' W 070°43'0 0.0
2014-Jun-30 08:28N 41°42' W 070°43'0 0.0
2014-Jun-30 07:32N 41°42' W 070°43'0 0.0
2014-Jun-30 06:31N 41°42' W 070°43'0 0.0
2014-Jun-30 05:33N 41°42' W 070°43'0 0.0
2014-Jun-30 04:33N 41°42' W 070°43'0 0.0
2014-Jun-30 03:30N 41°42' W 070°43'0 0.0
2014-Jun-30 02:32N 41°42' W 070°43'4 3.6
2014-Jun-30 01:33N 41°38' W 070°42'7 7.0
2014-Jun-30 00:33N 41°32' W 070°47'8 7.8
2014-Jun-29 23:33N 41°29' W 070°56'8 7.7
2014-Jun-29 22:33N 41°24' W 071°04'7 7.3
2014-Jun-29 21:33N 41°22' W 071°13'8 7.5
2014-Jun-29 20:33N 41°20' W 071°23'8 7.9
2014-Jun-29 19:33N 41°19' W 071°34'8 7.8
2014-Jun-29 18:33N 41°18' W 071°44'7 7.3
2014-Jun-29 17:33N 41°18' W 071°54'4 4.3
2014-Jun-29 16:33N 41°20' W 071°58'  
2014-Jun-21 19:25N 41°20' W 071°58'  
Track history (hours):
 
Tides and Currents Weather Stations Pressure Air Temp Water Temp Dewpoint Dewpoint Depression Visibility Wind Speed Wind Dir Waves Ship Positions

Just Believe

More information available from US FCC via Universal Licensing System and Coast Guard Vessel Documentation Center.

Last reported at 2014-Jul-01 08:15 UTC. Time now 2014-Jul-29 10:43 UTC.
Position N 42°48' W 067°23'.
Warning: this ship's position is 28 days out of date.

Length 18 m; draft 2 m.

Type: Pleasure craft. MMSI: 367376980.

Date/timePositionNaut miles runAvg speedWind from/ knotsBaromVisibWave heightAir tempDewpointWater temp
2014-Jul-01 08:15N 42°48' W 067°23'5 7.3
2014-Jul-01 07:33N 42°46' W 067°30'8 7.6
2014-Jul-01 06:33N 42°44' W 067°40'7 7.4
2014-Jul-01 05:33N 42°42' W 067°49'8 7.8
2014-Jul-01 04:33N 42°39' W 067°59'8 8.4
2014-Jul-01 03:33N 42°37' W 068°10'8 8.0
2014-Jul-01 02:33N 42°34' W 068°20'9 8.7
2014-Jul-01 01:33N 42°31' W 068°32'9 8.5
2014-Jul-01 00:32N 42°29' W 068°43'86 7.6
2014-Jun-30 13:13N 41°50' W 070°27'5 7.9
2014-Jun-30 12:33N 41°47' W 070°32'9 9.1
2014-Jun-30 11:33N 41°41' W 070°42'1 0.6
2014-Jun-30 10:25N 41°42' W 070°43'0 0.0
2014-Jun-30 09:31N 41°42' W 070°43'0 0.0
2014-Jun-30 08:28N 41°42' W 070°43'0 0.0
2014-Jun-30 07:32N 41°42' W 070°43'0 0.0
2014-Jun-30 06:31N 41°42' W 070°43'0 0.0
2014-Jun-30 05:33N 41°42' W 070°43'0 0.0
2014-Jun-30 04:33N 41°42' W 070°43'0 0.0
2014-Jun-30 03:30N 41°42' W 070°43'0 0.0
2014-Jun-30 02:32N 41°42' W 070°43'4 3.6
2014-Jun-30 01:33N 41°38' W 070°42'7 7.0
2014-Jun-30 00:33N 41°32' W 070°47'8 7.8
2014-Jun-29 23:33N 41°29' W 070°56'8 7.7
2014-Jun-29 22:33N 41°24' W 071°04'7 7.3
2014-Jun-29 21:33N 41°22' W 071°13'8 7.5
2014-Jun-29 20:33N 41°20' W 071°23'8 7.9
2014-Jun-29 19:33N 41°19' W 071°34'8 7.8
2014-Jun-29 18:33N 41°18' W 071°44'7 7.3
2014-Jun-29 17:33N 41°18' W 071°54'4 4.3
2014-Jun-29 16:33N 41°20' W 071°58'  
2014-Jun-21 19:25N 41°20' W 071°58'  

Dump ship's entire track history